sensor_id;sensor_type;location;lat;lon;timestamp;pressure;altitude;pressure_sealevel;temperature;humidity
34506;BME280;20748;42.632;23.198;2024-01-11T00:01:59;92752.38;;;-7.50;87.26
34506;BME280;20748;42.632;23.198;2024-01-11T00:04:33;92744.19;;;-7.61;87.84
34506;BME280;20748;42.632;23.198;2024-01-11T00:07:08;92743.03;;;-7.50;87.76
34506;BME280;20748;42.632;23.198;2024-01-11T00:09:41;92737.69;;;-7.55;87.43
34506;BME280;20748;42.632;23.198;2024-01-11T00:12:16;92744.56;;;-7.64;87.35
34506;BME280;20748;42.632;23.198;2024-01-11T00:14:49;92737.56;;;-7.62;86.94
34506;BME280;20748;42.632;23.198;2024-01-11T00:17:22;92741.22;;;-7.64;86.81
34506;BME280;20748;42.632;23.198;2024-01-11T00:19:56;92739.19;;;-7.69;88.57
34506;BME280;20748;42.632;23.198;2024-01-11T00:22:31;92735.19;;;-7.63;87.98
34506;BME280;20748;42.632;23.198;2024-01-11T00:25:04;92733.44;;;-7.63;87.27
34506;BME280;20748;42.632;23.198;2024-01-11T00:27:38;92729.63;;;-7.59;86.43
34506;BME280;20748;42.632;23.198;2024-01-11T00:30:11;92730.13;;;-7.63;85.39
34506;BME280;20748;42.632;23.198;2024-01-11T00:32:45;92727.34;;;-7.77;85.76
34506;BME280;20748;42.632;23.198;2024-01-11T00:35:18;92727.06;;;-7.82;85.48
34506;BME280;20748;42.632;23.198;2024-01-11T00:37:53;92730.28;;;-7.88;86.29
34506;BME280;20748;42.632;23.198;2024-01-11T00:40:27;92731.28;;;-7.98;87.60
34506;BME280;20748;42.632;23.198;2024-01-11T00:43:00;92727.97;;;-7.98;86.96
34506;BME280;20748;42.632;23.198;2024-01-11T00:45:34;92727.06;;;-8.05;87.29
34506;BME280;20748;42.632;23.198;2024-01-11T00:48:07;92717.94;;;-7.91;86.79
34506;BME280;20748;42.632;23.198;2024-01-11T00:50:41;92716.19;;;-7.91;86.75
34506;BME280;20748;42.632;23.198;2024-01-11T00:53:15;92710.13;;;-7.82;86.42
34506;BME280;20748;42.632;23.198;2024-01-11T00:55:50;92705.91;;;-7.89;86.55
34506;BME280;20748;42.632;23.198;2024-01-11T00:58:24;92710.97;;;-7.89;86.15
34506;BME280;20748;42.632;23.198;2024-01-11T01:00:58;92712.22;;;-7.85;86.94
34506;BME280;20748;42.632;23.198;2024-01-11T01:03:31;92709.69;;;-7.85;86.37
34506;BME280;20748;42.632;23.198;2024-01-11T01:06:05;92710.44;;;-7.85;85.63
34506;BME280;20748;42.632;23.198;2024-01-11T01:08:40;92709.16;;;-7.80;85.05
34506;BME280;20748;42.632;23.198;2024-01-11T01:11:13;92710.81;;;-7.88;85.16
34506;BME280;20748;42.632;23.198;2024-01-11T01:13:46;92714.13;;;-7.87;84.32
34506;BME280;20748;42.632;23.198;2024-01-11T01:16:20;92707.91;;;-7.85;84.61
34506;BME280;20748;42.632;23.198;2024-01-11T01:18:53;92712.81;;;-7.83;85.73
34506;BME280;20748;42.632;23.198;2024-01-11T01:21:27;92710.69;;;-7.95;86.33
34506;BME280;20748;42.632;23.198;2024-01-11T01:24:02;92712.47;;;-8.03;86.30
34506;BME280;20748;42.632;23.198;2024-01-11T01:26:35;92709.47;;;-8.07;86.73
34506;BME280;20748;42.632;23.198;2024-01-11T01:29:09;92713.94;;;-8.09;87.53
34506;BME280;20748;42.632;23.198;2024-01-11T01:31:43;92704.56;;;-8.09;89.23
34506;BME280;20748;42.632;23.198;2024-01-11T01:34:18;92701.34;;;-7.94;89.50
34506;BME280;20748;42.632;23.198;2024-01-11T01:36:51;92702.41;;;-7.88;89.02
34506;BME280;20748;42.632;23.198;2024-01-11T01:39:26;92700.16;;;-7.83;88.49
34506;BME280;20748;42.632;23.198;2024-01-11T01:41:59;92700.66;;;-7.88;87.12
34506;BME280;20748;42.632;23.198;2024-01-11T01:44:33;92693.22;;;-7.89;86.15
34506;BME280;20748;42.632;23.198;2024-01-11T01:47:07;92687.19;;;-7.88;85.53
34506;BME280;20748;42.632;23.198;2024-01-11T01:49:41;92688.63;;;-7.86;85.02
34506;BME280;20748;42.632;23.198;2024-01-11T01:52:16;92681.34;;;-7.89;85.70
34506;BME280;20748;42.632;23.198;2024-01-11T01:54:51;92677.44;;;-8.00;86.18
34506;BME280;20748;42.632;23.198;2024-01-11T01:57:24;92673.81;;;-7.97;86.42
34506;BME280;20748;42.632;23.198;2024-01-11T01:59:58;92668.44;;;-8.02;87.45
34506;BME280;20748;42.632;23.198;2024-01-11T02:02:32;92664.41;;;-8.12;87.10
34506;BME280;20748;42.632;23.198;2024-01-11T02:05:07;92664.09;;;-8.17;88.60
34506;BME280;20748;42.632;23.198;2024-01-11T02:07:40;92660.09;;;-8.11;87.69
34506;BME280;20748;42.632;23.198;2024-01-11T02:10:15;92665.91;;;-8.02;87.34
34506;BME280;20748;42.632;23.198;2024-01-11T02:12:49;92665.06;;;-7.95;86.71
34506;BME280;20748;42.632;23.198;2024-01-11T02:15:23;92668.56;;;-7.96;87.56
34506;BME280;20748;42.632;23.198;2024-01-11T02:17:56;92659.50;;;-8.13;89.27
34506;BME280;20748;42.632;23.198;2024-01-11T02:20:30;92668.53;;;-8.19;89.56
34506;BME280;20748;42.632;23.198;2024-01-11T02:23:05;92666.47;;;-8.15;90.53
34506;BME280;20748;42.632;23.198;2024-01-11T02:25:41;92663.00;;;-8.14;90.07
34506;BME280;20748;42.632;23.198;2024-01-11T02:28:14;92669.50;;;-8.20;90.78
34506;BME280;20748;42.632;23.198;2024-01-11T02:30:47;92660.75;;;-8.09;91.63
34506;BME280;20748;42.632;23.198;2024-01-11T02:33:21;92661.97;;;-8.05;90.54
34506;BME280;20748;42.632;23.198;2024-01-11T02:35:55;92654.88;;;-8.10;90.48
34506;BME280;20748;42.632;23.198;2024-01-11T02:38:28;92664.72;;;-8.15;88.89
34506;BME280;20748;42.632;23.198;2024-01-11T02:41:04;92655.41;;;-8.14;88.87
34506;BME280;20748;42.632;23.198;2024-01-11T02:43:38;92652.81;;;-8.06;87.42
34506;BME280;20748;42.632;23.198;2024-01-11T02:46:11;92647.44;;;-8.11;88.54
34506;BME280;20748;42.632;23.198;2024-01-11T02:48:45;92652.50;;;-8.11;89.03
34506;BME280;20748;42.632;23.198;2024-01-11T02:51:19;92643.03;;;-8.09;88.65
34506;BME280;20748;42.632;23.198;2024-01-11T02:53:52;92642.03;;;-8.31;90.24
34506;BME280;20748;42.632;23.198;2024-01-11T02:56:27;92634.63;;;-8.33;89.85
34506;BME280;20748;42.632;23.198;2024-01-11T02:59:00;92639.63;;;-8.25;89.90
34506;BME280;20748;42.632;23.198;2024-01-11T03:01:34;92639.84;;;-8.11;90.77
34506;BME280;20748;42.632;23.198;2024-01-11T03:04:07;92635.06;;;-8.06;90.74
34506;BME280;20748;42.632;23.198;2024-01-11T03:06:41;92633.38;;;-8.14;90.99
34506;BME280;20748;42.632;23.198;2024-01-11T03:09:15;92633.50;;;-8.07;90.86
34506;BME280;20748;42.632;23.198;2024-01-11T03:11:49;92640.50;;;-8.09;90.93
34506;BME280;20748;42.632;23.198;2024-01-11T03:14:23;92646.16;;;-8.07;90.62
34506;BME280;20748;42.632;23.198;2024-01-11T03:16:56;92643.03;;;-8.09;90.71
34506;BME280;20748;42.632;23.198;2024-01-11T03:19:30;92632.09;;;-8.10;90.86
34506;BME280;20748;42.632;23.198;2024-01-11T03:22:03;92638.22;;;-8.04;91.23
34506;BME280;20748;42.632;23.198;2024-01-11T03:24:38;92630.13;;;-7.99;90.01
34506;BME280;20748;42.632;23.198;2024-01-11T03:27:14;92634.56;;;-8.01;90.19
34506;BME280;20748;42.632;23.198;2024-01-11T03:29:47;92638.22;;;-8.04;90.45
34506;BME280;20748;42.632;23.198;2024-01-11T03:32:21;92631.13;;;-8.09;90.91
34506;BME280;20748;42.632;23.198;2024-01-11T03:34:55;92628.66;;;-8.17;92.56
34506;BME280;20748;42.632;23.198;2024-01-11T03:37:28;92628.81;;;-8.18;93.00
34506;BME280;20748;42.632;23.198;2024-01-11T03:40:02;92628.75;;;-8.10;93.29
34506;BME280;20748;42.632;23.198;2024-01-11T03:42:37;92623.81;;;-8.03;93.84
34506;BME280;20748;42.632;23.198;2024-01-11T03:45:10;92621.06;;;-7.93;93.43
34506;BME280;20748;42.632;23.198;2024-01-11T03:47:42;92618.97;;;-7.90;93.28
34506;BME280;20748;42.632;23.198;2024-01-11T03:50:19;92624.31;;;-7.85;93.26
34506;BME280;20748;42.632;23.198;2024-01-11T03:52:52;92620.09;;;-7.92;92.84
34506;BME280;20748;42.632;23.198;2024-01-11T03:55:26;92612.59;;;-7.86;92.14
34506;BME280;20748;42.632;23.198;2024-01-11T03:58:01;92620.50;;;-7.80;91.77
34506;BME280;20748;42.632;23.198;2024-01-11T04:00:34;92611.81;;;-7.86;91.40
34506;BME280;20748;42.632;23.198;2024-01-11T04:03:08;92620.81;;;-7.84;91.18
34506;BME280;20748;42.632;23.198;2024-01-11T04:05:41;92620.66;;;-7.82;90.78
34506;BME280;20748;42.632;23.198;2024-01-11T04:08:15;92612.94;;;-7.89;90.35
34506;BME280;20748;42.632;23.198;2024-01-11T04:10:48;92612.59;;;-7.86;90.23
34506;BME280;20748;42.632;23.198;2024-01-11T04:13:23;92604.72;;;-7.91;90.55
34506;BME280;20748;42.632;23.198;2024-01-11T04:15:57;92609.63;;;-7.89;90.17
34506;BME280;20748;42.632;23.198;2024-01-11T04:18:30;92602.47;;;-7.86;90.02
34506;BME280;20748;42.632;23.198;2024-01-11T04:21:04;92591.44;;;-7.93;90.37
34506;BME280;20748;42.632;23.198;2024-01-11T04:23:37;92598.19;;;-8.09;91.55
34506;BME280;20748;42.632;23.198;2024-01-11T04:26:11;92593.31;;;-8.10;91.60
34506;BME280;20748;42.632;23.198;2024-01-11T04:28:46;92591.56;;;-8.10;91.74
34506;BME280;20748;42.632;23.198;2024-01-11T04:31:19;92589.03;;;-8.10;92.14
34506;BME280;20748;42.632;23.198;2024-01-11T04:33:53;92596.03;;;-8.12;93.06
34506;BME280;20748;42.632;23.198;2024-01-11T04:36:26;92586.06;;;-8.13;94.05
34506;BME280;20748;42.632;23.198;2024-01-11T04:39:00;92589.19;;;-8.11;93.58
34506;BME280;20748;42.632;23.198;2024-01-11T04:41:35;92594.53;;;-8.06;93.61
34506;BME280;20748;42.632;23.198;2024-01-11T04:44:09;92591.00;;;-7.97;93.24
34506;BME280;20748;42.632;23.198;2024-01-11T04:46:43;92592.63;;;-8.04;91.88
34506;BME280;20748;42.632;23.198;2024-01-11T04:49:16;92597.09;;;-8.06;90.12
34506;BME280;20748;42.632;23.198;2024-01-11T04:51:50;92597.59;;;-8.11;90.50
34506;BME280;20748;42.632;23.198;2024-01-11T04:54:24;92601.63;;;-8.01;88.26
34506;BME280;20748;42.632;23.198;2024-01-11T04:56:57;92595.22;;;-8.12;88.99
34506;BME280;20748;42.632;23.198;2024-01-11T04:59:32;92605.06;;;-8.17;89.80
34506;BME280;20748;42.632;23.198;2024-01-11T05:02:06;92592.53;;;-8.11;91.27
34506;BME280;20748;42.632;23.198;2024-01-11T05:04:39;92594.38;;;-8.04;91.32
34506;BME280;20748;42.632;23.198;2024-01-11T05:07:12;92599.22;;;-7.95;90.60
34506;BME280;20748;42.632;23.198;2024-01-11T05:09:46;92590.03;;;-7.96;90.84
34506;BME280;20748;42.632;23.198;2024-01-11T05:12:19;92592.75;;;-7.97;89.77
34506;BME280;20748;42.632;23.198;2024-01-11T05:14:54;92591.63;;;-7.95;89.14
34506;BME280;20748;42.632;23.198;2024-01-11T05:17:27;92589.53;;;-7.91;89.04
34506;BME280;20748;42.632;23.198;2024-01-11T05:20:01;92585.44;;;-7.92;89.07
34506;BME280;20748;42.632;23.198;2024-01-11T05:22:35;92581.38;;;-8.01;89.25
34506;BME280;20748;42.632;23.198;2024-01-11T05:25:08;92581.44;;;-8.10;90.57
34506;BME280;20748;42.632;23.198;2024-01-11T05:27:42;92576.22;;;-8.08;90.28
34506;BME280;20748;42.632;23.198;2024-01-11T05:30:16;92576.94;;;-7.99;90.46
34506;BME280;20748;42.632;23.198;2024-01-11T05:32:50;92577.94;;;-8.09;91.19
34506;BME280;20748;42.632;23.198;2024-01-11T05:35:23;92576.03;;;-8.06;90.35
34506;BME280;20748;42.632;23.198;2024-01-11T05:37:59;92579.88;;;-8.11;91.27
34506;BME280;20748;42.632;23.198;2024-01-11T05:40:33;92577.50;;;-8.12;90.51
34506;BME280;20748;42.632;23.198;2024-01-11T05:43:06;92569.38;;;-8.07;90.98
34506;BME280;20748;42.632;23.198;2024-01-11T05:45:41;92575.53;;;-8.02;90.03
34506;BME280;20748;42.632;23.198;2024-01-11T05:48:19;92573.91;;;-8.18;90.58
34506;BME280;20748;42.632;23.198;2024-01-11T05:50:52;92576.38;;;-8.10;89.81
34506;BME280;20748;42.632;23.198;2024-01-11T05:53:26;92577.44;;;-8.04;88.59
34506;BME280;20748;42.632;23.198;2024-01-11T05:55:59;92572.09;;;-8.09;89.95
34506;BME280;20748;42.632;23.198;2024-01-11T05:58:33;92572.28;;;-8.11;90.17
34506;BME280;20748;42.632;23.198;2024-01-11T06:01:08;92570.25;;;-8.15;89.88
34506;BME280;20748;42.632;23.198;2024-01-11T06:03:41;92568.66;;;-8.16;90.42
34506;BME280;20748;42.632;23.198;2024-01-11T06:06:15;92566.25;;;-8.10;90.16
34506;BME280;20748;42.632;23.198;2024-01-11T06:08:48;92568.25;;;-8.05;90.19
34506;BME280;20748;42.632;23.198;2024-01-11T06:11:22;92566.97;;;-8.01;89.97
34506;BME280;20748;42.632;23.198;2024-01-11T06:13:56;92567.94;;;-8.02;90.46
34506;BME280;20748;42.632;23.198;2024-01-11T06:16:31;92572.03;;;-8.01;90.90
34506;BME280;20748;42.632;23.198;2024-01-11T06:19:04;92572.16;;;-7.94;89.61
34506;BME280;20748;42.632;23.198;2024-01-11T06:21:39;92567.34;;;-7.89;89.52
34506;BME280;20748;42.632;23.198;2024-01-11T06:24:13;92565.44;;;-7.87;89.36
34506;BME280;20748;42.632;23.198;2024-01-11T06:26:46;92564.91;;;-7.82;90.27
34506;BME280;20748;42.632;23.198;2024-01-11T06:29:20;92562.25;;;-7.89;90.27
34506;BME280;20748;42.632;23.198;2024-01-11T06:31:55;92561.06;;;-7.93;91.24
34506;BME280;20748;42.632;23.198;2024-01-11T06:34:28;92554.41;;;-7.94;91.68
34506;BME280;20748;42.632;23.198;2024-01-11T06:37:02;92553.91;;;-7.89;91.39
34506;BME280;20748;42.632;23.198;2024-01-11T06:39:35;92553.91;;;-7.89;92.46
34506;BME280;20748;42.632;23.198;2024-01-11T06:42:09;92558.28;;;-7.83;92.06
34506;BME280;20748;42.632;23.198;2024-01-11T06:44:42;92557.41;;;-7.90;92.83
34506;BME280;20748;42.632;23.198;2024-01-11T06:47:17;92551.88;;;-7.94;93.84
34506;BME280;20748;42.632;23.198;2024-01-11T06:49:51;92535.09;;;-7.95;93.83
34506;BME280;20748;42.632;23.198;2024-01-11T06:52:24;92540.72;;;-7.85;94.09
34506;BME280;20748;42.632;23.198;2024-01-11T06:54:57;92539.56;;;-7.82;93.67
34506;BME280;20748;42.632;23.198;2024-01-11T06:57:31;92539.06;;;-7.77;92.81
34506;BME280;20748;42.632;23.198;2024-01-11T07:00:05;92543.50;;;-7.79;92.51
34506;BME280;20748;42.632;23.198;2024-01-11T07:02:41;92542.56;;;-7.78;91.72
34506;BME280;20748;42.632;23.198;2024-01-11T07:05:14;92542.28;;;-7.69;90.78
34506;BME280;20748;42.632;23.198;2024-01-11T07:07:48;92539.41;;;-7.80;91.01
34506;BME280;20748;42.632;23.198;2024-01-11T07:10:21;92543.91;;;-7.68;91.81
34506;BME280;20748;42.632;23.198;2024-01-11T07:12:55;92535.94;;;-7.64;90.79
34506;BME280;20748;42.632;23.198;2024-01-11T07:15:28;92547.38;;;-7.53;91.17
34506;BME280;20748;42.632;23.198;2024-01-11T07:18:03;92550.97;;;-7.48;91.43
34506;BME280;20748;42.632;23.198;2024-01-11T07:20:37;92546.78;;;-7.41;92.02
34506;BME280;20748;42.632;23.198;2024-01-11T07:23:10;92547.66;;;-7.33;92.59
34506;BME280;20748;42.632;23.198;2024-01-11T07:25:44;92487.88;;;-7.58;93.39
34506;BME280;20748;42.632;23.198;2024-01-11T07:28:17;92537.00;;;-7.13;93.71
34506;BME280;20748;42.632;23.198;2024-01-11T07:30:51;92531.81;;;-7.05;93.77
34506;BME280;20748;42.632;23.198;2024-01-11T07:33:27;92533.91;;;-6.94;94.15
34506;BME280;20748;42.632;23.198;2024-01-11T07:36:01;92529.88;;;-6.88;94.92
34506;BME280;20748;42.632;23.198;2024-01-11T07:38:35;92528.19;;;-6.81;95.28
34506;BME280;20748;42.632;23.198;2024-01-11T07:41:08;92528.50;;;-6.69;96.14
34506;BME280;20748;42.632;23.198;2024-01-11T07:43:42;92537.00;;;-6.62;96.37
34506;BME280;20748;42.632;23.198;2024-01-11T07:46:25;92536.69;;;-6.52;96.20
34506;BME280;20748;42.632;23.198;2024-01-11T07:49:11;92530.34;;;-6.41;96.80
34506;BME280;20748;42.632;23.198;2024-01-11T07:51:45;92531.03;;;-6.32;97.18
34506;BME280;20748;42.632;23.198;2024-01-11T07:54:18;92524.06;;;-6.23;97.24
34506;BME280;20748;42.632;23.198;2024-01-11T07:56:52;92524.13;;;-6.16;97.70
34506;BME280;20748;42.632;23.198;2024-01-11T07:59:25;92524.00;;;-6.08;97.49
34506;BME280;20748;42.632;23.198;2024-01-11T08:01:58;92516.66;;;-5.96;96.78
34506;BME280;20748;42.632;23.198;2024-01-11T08:04:33;92518.44;;;-5.90;96.33
34506;BME280;20748;42.632;23.198;2024-01-11T08:07:07;92516.75;;;-5.83;97.53
34506;BME280;20748;42.632;23.198;2024-01-11T08:09:40;92506.63;;;-5.76;97.74
34506;BME280;20748;42.632;23.198;2024-01-11T08:12:17;92514.50;;;-5.64;97.90
34506;BME280;20748;42.632;23.198;2024-01-11T08:14:51;92505.97;;;-5.56;98.12
34506;BME280;20748;42.632;23.198;2024-01-11T08:17:24;92506.94;;;-5.57;98.10
34506;BME280;20748;42.632;23.198;2024-01-11T08:19:59;92500.53;;;-5.46;97.53
34506;BME280;20748;42.632;23.198;2024-01-11T08:22:33;92498.66;;;-5.31;97.48
34506;BME280;20748;42.632;23.198;2024-01-11T08:25:08;92501.44;;;-5.19;97.37
34506;BME280;20748;42.632;23.198;2024-01-11T08:27:41;92494.25;;;-5.08;97.69
34506;BME280;20748;42.632;23.198;2024-01-11T08:30:15;92498.41;;;-4.94;97.40
34506;BME280;20748;42.632;23.198;2024-01-11T08:32:48;92497.06;;;-4.90;96.70
34506;BME280;20748;42.632;23.198;2024-01-11T08:35:23;92495.94;;;-4.80;97.28
34506;BME280;20748;42.632;23.198;2024-01-11T08:37:57;92497.13;;;-4.69;97.20
34506;BME280;20748;42.632;23.198;2024-01-11T08:40:30;92497.38;;;-4.57;98.02
34506;BME280;20748;42.632;23.198;2024-01-11T08:43:04;92497.59;;;-4.46;97.42
34506;BME280;20748;42.632;23.198;2024-01-11T08:45:38;92503.47;;;-4.38;96.61
34506;BME280;20748;42.632;23.198;2024-01-11T08:48:12;92502.72;;;-4.25;95.96
34506;BME280;20748;42.632;23.198;2024-01-11T08:50:47;92500.97;;;-4.11;95.50
34506;BME280;20748;42.632;23.198;2024-01-11T08:53:20;92498.41;;;-3.98;94.77
34506;BME280;20748;42.632;23.198;2024-01-11T08:55:54;92496.47;;;-3.82;94.07
34506;BME280;20748;42.632;23.198;2024-01-11T08:58:27;92497.81;;;-3.66;93.87
34506;BME280;20748;42.632;23.198;2024-01-11T09:01:01;92485.22;;;-3.47;93.04
34506;BME280;20748;42.632;23.198;2024-01-11T09:03:34;92486.59;;;-3.38;92.22
34506;BME280;20748;42.632;23.198;2024-01-11T09:06:10;92478.88;;;-3.25;91.57
34506;BME280;20748;42.632;23.198;2024-01-11T09:08:43;92480.63;;;-3.12;90.34
34506;BME280;20748;42.632;23.198;2024-01-11T09:11:17;92481.34;;;-2.98;88.16
34506;BME280;20748;42.632;23.198;2024-01-11T09:13:50;92478.19;;;-2.93;85.21
34506;BME280;20748;42.632;23.198;2024-01-11T09:16:23;92474.38;;;-2.77;84.23
34506;BME280;20748;42.632;23.198;2024-01-11T09:18:57;92472.03;;;-2.78;80.67
34506;BME280;20748;42.632;23.198;2024-01-11T09:21:34;92468.19;;;-2.56;81.10
34506;BME280;20748;42.632;23.198;2024-01-11T09:24:07;92465.88;;;-2.32;79.56
34506;BME280;20748;42.632;23.198;2024-01-11T09:26:41;92474.00;;;-2.09;76.71
34506;BME280;20748;42.632;23.198;2024-01-11T09:29:14;92476.44;;;-1.96;72.24
34506;BME280;20748;42.632;23.198;2024-01-11T09:31:48;92473.94;;;-1.77;71.06
34506;BME280;20748;42.632;23.198;2024-01-11T09:34:21;92467.69;;;-1.63;69.96
34506;BME280;20748;42.632;23.198;2024-01-11T09:36:56;92461.13;;;-1.33;68.82
34506;BME280;20748;42.632;23.198;2024-01-11T09:39:31;92465.19;;;-1.25;66.92
34506;BME280;20748;42.632;23.198;2024-01-11T09:42:06;92458.84;;;-1.04;65.52
34506;BME280;20748;42.632;23.198;2024-01-11T09:44:41;92453.84;;;-0.80;64.67
34506;BME280;20748;42.632;23.198;2024-01-11T09:47:15;92456.31;;;-0.73;64.23
34506;BME280;20748;42.632;23.198;2024-01-11T09:49:50;92451.88;;;-0.66;63.03
34506;BME280;20748;42.632;23.198;2024-01-11T09:52:25;92442.13;;;-0.45;64.57
34506;BME280;20748;42.632;23.198;2024-01-11T09:54:59;92438.53;;;-0.25;63.49
34506;BME280;20748;42.632;23.198;2024-01-11T09:57:32;92433.97;;;-0.11;63.84
34506;BME280;20748;42.632;23.198;2024-01-11T10:00:10;92433.75;;;-0.10;62.44
34506;BME280;20748;42.632;23.198;2024-01-11T10:02:46;92419.03;;;-0.15;61.99
34506;BME280;20748;42.632;23.198;2024-01-11T10:05:19;92423.38;;;-0.03;62.34
34506;BME280;20748;42.632;23.198;2024-01-11T10:07:55;92427.72;;;-0.16;59.46
34506;BME280;20748;42.632;23.198;2024-01-11T10:10:28;92421.75;;;-0.40;59.57
34506;BME280;20748;42.632;23.198;2024-01-11T10:13:01;92414.19;;;-0.35;61.38
34506;BME280;20748;42.632;23.198;2024-01-11T10:15:35;92408.41;;;-0.30;60.68
34506;BME280;20748;42.632;23.198;2024-01-11T10:18:08;92409.19;;;-0.30;63.32
34506;BME280;20748;42.632;23.198;2024-01-11T10:20:42;92399.28;;;-0.14;62.07
34506;BME280;20748;42.632;23.198;2024-01-11T10:23:17;92404.31;;;-0.07;62.91
34506;BME280;20748;42.632;23.198;2024-01-11T10:25:51;92396.38;;;-0.06;62.06
34506;BME280;20748;42.632;23.198;2024-01-11T10:28:25;92391.94;;;-0.10;62.97
34506;BME280;20748;42.632;23.198;2024-01-11T10:31:00;92387.47;;;-0.03;62.05
34506;BME280;20748;42.632;23.198;2024-01-11T10:33:34;92383.22;;;0.15;61.13
34506;BME280;20748;42.632;23.198;2024-01-11T10:36:08;92378.44;;;0.30;62.78
34506;BME280;20748;42.632;23.198;2024-01-11T10:38:43;92371.72;;;0.29;61.17
34506;BME280;20748;42.632;23.198;2024-01-11T10:41:25;92367.88;;;0.56;61.45
34506;BME280;20748;42.632;23.198;2024-01-11T10:44:00;92368.97;;;0.72;61.36
34506;BME280;20748;42.632;23.198;2024-01-11T10:46:35;92361.69;;;0.80;62.26
34506;BME280;20748;42.632;23.198;2024-01-11T10:49:08;92354.66;;;1.05;60.36
34506;BME280;20748;42.632;23.198;2024-01-11T10:51:45;92356.09;;;1.13;61.75
34506;BME280;20748;42.632;23.198;2024-01-11T10:54:23;92351.34;;;1.22;60.87
34506;BME280;20748;42.632;23.198;2024-01-11T10:56:57;92342.19;;;1.26;60.16
34506;BME280;20748;42.632;23.198;2024-01-11T10:59:32;92335.72;;;1.23;59.17
34506;BME280;20748;42.632;23.198;2024-01-11T11:02:07;92333.91;;;0.94;60.24
34506;BME280;20748;42.632;23.198;2024-01-11T11:04:45;92330.69;;;0.99;61.54
34506;BME280;20748;42.632;23.198;2024-01-11T11:07:18;92328.47;;;0.91;61.29
34506;BME280;20748;42.632;23.198;2024-01-11T11:09:53;92315.72;;;0.96;63.24
34506;BME280;20748;42.632;23.198;2024-01-11T11:12:27;92311.50;;;0.90;60.92
34506;BME280;20748;42.632;23.198;2024-01-11T11:15:01;92305.00;;;0.99;62.24
34506;BME280;20748;42.632;23.198;2024-01-11T11:17:35;92304.59;;;0.90;61.82
34506;BME280;20748;42.632;23.198;2024-01-11T11:20:09;92307.47;;;1.11;61.22
34506;BME280;20748;42.632;23.198;2024-01-11T11:22:47;92296.97;;;0.96;62.59
34506;BME280;20748;42.632;23.198;2024-01-11T11:25:25;92290.09;;;1.01;64.45
34506;BME280;20748;42.632;23.198;2024-01-11T11:27:58;92278.59;;;1.21;63.48
34506;BME280;20748;42.632;23.198;2024-01-11T11:30:33;92270.47;;;0.95;63.82
34506;BME280;20748;42.632;23.198;2024-01-11T11:33:09;92270.56;;;1.17;63.45
34506;BME280;20748;42.632;23.198;2024-01-11T11:35:44;92263.75;;;1.23;64.33
34506;BME280;20748;42.632;23.198;2024-01-11T11:38:20;92258.41;;;1.30;63.13
34506;BME280;20748;42.632;23.198;2024-01-11T11:40:56;92256.72;;;1.18;64.02
34506;BME280;20748;42.632;23.198;2024-01-11T11:43:30;92254.00;;;1.42;63.19
34506;BME280;20748;42.632;23.198;2024-01-11T11:46:04;92254.34;;;1.68;63.11
34506;BME280;20748;42.632;23.198;2024-01-11T11:48:50;92246.91;;;1.50;62.67
34506;BME280;20748;42.632;23.198;2024-01-11T11:51:25;92251.56;;;1.53;61.63
34506;BME280;20748;42.632;23.198;2024-01-11T11:54:00;92247.84;;;1.43;62.76
34506;BME280;20748;42.632;23.198;2024-01-11T11:56:37;92234.28;;;1.87;63.08
34506;BME280;20748;42.632;23.198;2024-01-11T11:59:11;92241.72;;;1.84;63.57
34506;BME280;20748;42.632;23.198;2024-01-11T12:01:44;92233.00;;;1.68;62.07
34506;BME280;20748;42.632;23.198;2024-01-11T12:04:18;92234.03;;;1.89;62.86
34506;BME280;20748;42.632;23.198;2024-01-11T12:06:51;92232.25;;;2.12;63.04
34506;BME280;20748;42.632;23.198;2024-01-11T12:09:25;92226.34;;;2.11;61.57
34506;BME280;20748;42.632;23.198;2024-01-11T12:12:00;92223.41;;;2.25;61.34
34506;BME280;20748;42.632;23.198;2024-01-11T12:14:46;92223.09;;;2.21;61.28
34506;BME280;20748;42.632;23.198;2024-01-11T12:17:21;92219.44;;;2.17;60.23
34506;BME280;20748;42.632;23.198;2024-01-11T12:19:54;92216.16;;;1.99;61.64
34506;BME280;20748;42.632;23.198;2024-01-11T12:22:28;92204.56;;;2.19;60.97
34506;BME280;20748;42.632;23.198;2024-01-11T12:25:01;92209.66;;;2.41;61.02
34506;BME280;20748;42.632;23.198;2024-01-11T12:27:36;92208.72;;;2.48;61.26
34506;BME280;20748;42.632;23.198;2024-01-11T12:30:10;92204.47;;;2.64;61.28
34506;BME280;20748;42.632;23.198;2024-01-11T12:32:46;92206.06;;;2.70;62.49
34506;BME280;20748;42.632;23.198;2024-01-11T12:35:22;92204.84;;;2.23;61.45
34506;BME280;20748;42.632;23.198;2024-01-11T12:37:58;92204.22;;;2.15;61.83
34506;BME280;20748;42.632;23.198;2024-01-11T12:40:32;92198.03;;;2.11;62.63
34506;BME280;20748;42.632;23.198;2024-01-11T12:43:07;92188.56;;;1.72;62.85
34506;BME280;20748;42.632;23.198;2024-01-11T12:45:40;92186.47;;;1.92;63.22
34506;BME280;20748;42.632;23.198;2024-01-11T12:48:14;92179.59;;;1.75;63.45
34506;BME280;20748;42.632;23.198;2024-01-11T12:50:51;92179.63;;;1.58;64.51
34506;BME280;20748;42.632;23.198;2024-01-11T12:53:45;92183.19;;;1.34;65.09
34506;BME280;20748;42.632;23.198;2024-01-11T12:56:19;92178.72;;;1.30;66.23
34506;BME280;20748;42.632;23.198;2024-01-11T12:59:05;92177.06;;;1.18;67.20
34506;BME280;20748;42.632;23.198;2024-01-11T13:01:39;92181.06;;;1.31;68.25
34506;BME280;20748;42.632;23.198;2024-01-11T13:04:13;92174.16;;;1.15;67.24
34506;BME280;20748;42.632;23.198;2024-01-11T13:06:46;92164.19;;;1.18;67.29
34506;BME280;20748;42.632;23.198;2024-01-11T13:09:20;92164.09;;;1.30;66.52
34506;BME280;20748;42.632;23.198;2024-01-11T13:11:53;92159.06;;;1.01;67.16
34506;BME280;20748;42.632;23.198;2024-01-11T13:14:28;92157.63;;;1.28;68.32
34506;BME280;20748;42.632;23.198;2024-01-11T13:17:02;92162.28;;;1.48;66.58
34506;BME280;20748;42.632;23.198;2024-01-11T13:19:35;92160.56;;;1.54;65.03
34506;BME280;20748;42.632;23.198;2024-01-11T13:22:09;92156.97;;;1.38;63.37
34506;BME280;20748;42.632;23.198;2024-01-11T13:24:42;92148.28;;;1.22;63.48
34506;BME280;20748;42.632;23.198;2024-01-11T13:27:16;92140.72;;;1.32;64.20
34506;BME280;20748;42.632;23.198;2024-01-11T13:29:50;92137.50;;;1.42;63.01